Time;durP1;ratioP1;P1;durP2;ratioP2;P2;SDS_P1;SDS_P2;PMS_P1;PMS_P2;Temp;Humidity;BMP_temperature;BMP_pressure;BME280_temperature;BME280_humidity;BME280_pressure;Samples;Min_cycle;Max_cycle;Signal;HPM_P1;HPM_P2
2022/07/27 00:02:13;;;;;;;7.60;5.03;;;;;;;;;;4987251;28;20042;-44
2022/07/27 00:04:38;;;;;;;11.18;3.88;;;;;;;;;;4986852;28;20362;-43
2022/07/27 00:07:03;;;;;;;10.70;4.75;;;;;;;;;;4986433;28;20050;-41
2022/07/27 00:09:29;;;;;;;5.72;3.15;;;;;;;;;;4986986;28;20050;-42
2022/07/27 00:11:54;;;;;;;6.28;4.00;;;;;;;;;;4986292;28;20046;-46
2022/07/27 00:14:19;;;;;;;6.50;2.35;;;;;;;;;;4986758;28;20108;-44
2022/07/27 00:16:45;;;;;;;7.78;3.92;;;;;;;;;;4986629;28;20133;-41
2022/07/27 00:19:10;;;;;;;3.85;2.55;;;;;;;;;;4986151;28;20042;-42
2022/07/27 00:21:36;;;;;;;8.25;3.67;;;;;;;;;;4988709;28;20117;-42
2022/07/27 00:24:01;;;;;;;9.02;4.38;;;;;;;;;;4988213;28;20456;-43
2022/07/27 00:26:26;;;;;;;22.55;3.45;;;;;;;;;;4987949;28;20609;-41
2022/07/27 00:28:52;;;;;;;6.20;2.38;;;;;;;;;;4990130;28;20054;-42
2022/07/27 00:31:17;;;;;;;5.82;4.15;;;;;;;;;;4990460;28;20525;-41
2022/07/27 00:33:42;;;;;;;8.32;3.88;;;;;;;;;;4989848;28;20042;-46
2022/07/27 00:36:08;;;;;;;5.28;2.92;;;;;;;;;;4990060;28;20057;-43
2022/07/27 00:38:33;;;;;;;6.28;3.45;;;;;;;;;;4990090;28;20421;-41
2022/07/27 00:40:58;;;;;;;6.78;2.92;;;;;;;;;;4989851;28;20046;-41
2022/07/27 00:43:24;;;;;;;5.30;3.38;;;;;;;;;;4989790;28;20128;-41
2022/07/27 00:45:49;;;;;;;6.88;3.47;;;;;;;;;;4989977;28;20062;-42
2022/07/27 00:48:14;;;;;;;5.07;3.50;;;;;;;;;;4990241;28;20054;-41
2022/07/27 00:50:41;;;;;;;6.78;2.53;;;;;;;;;;4989860;28;20523;-42
2022/07/27 00:53:07;;;;;;;7.43;3.40;;;;;;;;;;4989604;28;20117;-41
2022/07/27 00:55:33;;;;;;;5.93;2.55;;;;;;;;;;4989259;28;20050;-41
2022/07/27 00:57:58;;;;;;;4.63;3.03;;;;;;;;;;4989937;28;20409;-42
2022/07/27 01:00:24;;;;;;;5.00;3.17;;;;;;;;;;4990155;28;20050;-41
2022/07/27 01:02:49;;;;;;;6.88;3.67;;;;;;;;;;4989420;28;20140;-41
2022/07/27 01:05:18;;;;;;;4.05;2.90;;;;;;;;;;4989543;28;20047;-44
2022/07/27 01:07:43;;;;;;;5.88;3.70;;;;;;;;;;4989679;28;20129;-41
2022/07/27 01:10:08;;;;;;;10.18;5.32;;;;;;;;;;4989299;28;20141;-42
2022/07/27 01:12:34;;;;;;;14.90;3.42;;;;;;;;;;4989510;28;20058;-42
2022/07/27 01:14:59;;;;;;;16.25;3.75;;;;;;;;;;4988902;28;20061;-43
2022/07/27 01:17:25;;;;;;;5.82;2.65;;;;;;;;;;4989424;28;20085;-40
2022/07/27 01:19:51;;;;;;;3.15;2.45;;;;;;;;;;4989242;28;20113;-42
2022/07/27 01:22:17;;;;;;;6.53;3.58;;;;;;;;;;4989445;28;20450;-44
2022/07/27 01:24:42;;;;;;;3.25;2.85;;;;;;;;;;4989037;28;20497;-41
2022/07/27 01:27:08;;;;;;;7.07;4.10;;;;;;;;;;4990981;28;20049;-43
2022/07/27 01:29:34;;;;;;;12.38;3.75;;;;;;;;;;4989799;28;20038;-45
2022/07/27 01:31:59;;;;;;;6.75;3.33;;;;;;;;;;4989668;28;20109;-40
2022/07/27 01:34:25;;;;;;;16.00;4.70;;;;;;;;;;4988658;28;20054;-42
2022/07/27 01:36:50;;;;;;;5.68;3.72;;;;;;;;;;4988405;28;20129;-41
2022/07/27 01:39:16;;;;;;;8.93;2.85;;;;;;;;;;4987964;28;20486;-40
2022/07/27 01:41:41;;;;;;;5.22;3.78;;;;;;;;;;4988925;28;20109;-44
2022/07/27 01:44:07;;;;;;;11.30;3.78;;;;;;;;;;4988748;28;20437;-47
2022/07/27 01:46:32;;;;;;;8.30;3.58;;;;;;;;;;4990460;28;20153;-46
2022/07/27 01:48:57;;;;;;;6.70;4.13;;;;;;;;;;4990151;28;20046;-46
2022/07/27 01:51:23;;;;;;;3.83;2.20;;;;;;;;;;4989283;28;20494;-43
2022/07/27 01:53:48;;;;;;;11.25;4.13;;;;;;;;;;4989165;28;20042;-43
2022/07/27 01:56:13;;;;;;;7.00;3.30;;;;;;;;;;4989212;28;20062;-44
2022/07/27 01:58:39;;;;;;;9.10;4.15;;;;;;;;;;4989542;28;20465;-42
2022/07/27 02:01:05;;;;;;;6.25;2.75;;;;;;;;;;4989148;28;20174;-41
2022/07/27 02:03:31;;;;;;;6.60;3.20;;;;;;;;;;4989102;28;20438;-40
2022/07/27 02:05:56;;;;;;;6.82;3.17;;;;;;;;;;4989300;28;20704;-43
2022/07/27 02:08:21;;;;;;;2.97;2.67;;;;;;;;;;4989079;28;20564;-42
2022/07/27 02:13:30;;;;;;;7.75;3.63;;;;;;;;;;4988531;28;20516;-41
2022/07/27 02:15:56;;;;;;;4.63;3.42;;;;;;;;;;4988085;28;20050;-44
2022/07/27 02:18:21;;;;;;;17.25;3.25;;;;;;;;;;4989523;28;20061;-42
2022/07/27 02:20:47;;;;;;;4.65;3.25;;;;;;;;;;4988767;28;20054;-41
2022/07/27 02:23:12;;;;;;;8.00;4.93;;;;;;;;;;4988315;28;20034;-41
2022/07/27 02:25:39;;;;;;;11.27;4.05;;;;;;;;;;4988713;28;20095;-42
2022/07/27 02:28:04;;;;;;;8.20;4.18;;;;;;;;;;4991087;28;20061;-42
2022/07/27 02:30:30;;;;;;;6.47;3.50;;;;;;;;;;4988740;28;20081;-40
2022/07/27 02:32:55;;;;;;;13.75;4.93;;;;;;;;;;4988572;28;20077;-40
2022/07/27 02:35:21;;;;;;;6.47;3.42;;;;;;;;;;4988756;28;20053;-42
2022/07/27 02:37:47;;;;;;;11.40;4.53;;;;;;;;;;4988592;28;20038;-41
2022/07/27 02:40:14;;;;;;;9.98;4.68;;;;;;;;;;4989650;28;20062;-44
2022/07/27 02:42:39;;;;;;;7.90;3.38;;;;;;;;;;4988194;28;20042;-41
2022/07/27 02:45:05;;;;;;;9.70;4.00;;;;;;;;;;4988744;28;20045;-40
2022/07/27 02:47:30;;;;;;;4.95;2.45;;;;;;;;;;4988625;28;20053;-41
2022/07/27 02:49:55;;;;;;;10.30;3.38;;;;;;;;;;4987117;28;20422;-43
2022/07/27 02:52:21;;;;;;;10.63;4.05;;;;;;;;;;4988250;28;20086;-41
2022/07/27 02:54:46;;;;;;;4.47;3.15;;;;;;;;;;4988538;28;20050;-42
2022/07/27 02:57:11;;;;;;;13.45;3.67;;;;;;;;;;4988259;28;20050;-42
2022/07/27 02:59:37;;;;;;;5.43;3.40;;;;;;;;;;4988402;28;20077;-41
2022/07/27 03:02:02;;;;;;;9.38;4.68;;;;;;;;;;4988459;28;20035;-40
2022/07/27 03:04:27;;;;;;;9.88;4.55;;;;;;;;;;4988147;28;20057;-44
2022/07/27 03:06:53;;;;;;;6.82;4.07;;;;;;;;;;4988295;28;20050;-42
2022/07/27 03:09:18;;;;;;;6.70;3.00;;;;;;;;;;4988176;28;20466;-40
2022/07/27 03:11:43;;;;;;;4.35;3.25;;;;;;;;;;4987758;28;20046;-44
2022/07/27 03:14:09;;;;;;;5.07;3.47;;;;;;;;;;4987827;28;20457;-40
2022/07/27 03:16:34;;;;;;;7.05;3.95;;;;;;;;;;4987019;28;20046;-42
2022/07/27 03:19:00;;;;;;;13.48;3.38;;;;;;;;;;4987835;28;20582;-41
2022/07/27 03:21:25;;;;;;;10.05;3.30;;;;;;;;;;4987509;28;20449;-40
2022/07/27 03:23:50;;;;;;;7.03;3.95;;;;;;;;;;4987240;28;20565;-42
2022/07/27 03:26:17;;;;;;;11.52;4.95;;;;;;;;;;4987428;28;20760;-42
2022/07/27 03:28:43;;;;;;;3.78;2.90;;;;;;;;;;4986362;28;20054;-43
2022/07/27 03:31:08;;;;;;;9.43;4.28;;;;;;;;;;4987583;28;20768;-43
2022/07/27 03:33:34;;;;;;;12.90;4.68;;;;;;;;;;4987797;28;20046;-46
2022/07/27 03:36:00;;;;;;;9.05;4.15;;;;;;;;;;4987686;28;20038;-47
2022/07/27 03:38:25;;;;;;;20.15;4.53;;;;;;;;;;4987503;28;20046;-43
2022/07/27 03:40:50;;;;;;;13.52;3.97;;;;;;;;;;4987510;28;20060;-45
2022/07/27 03:43:16;;;;;;;6.68;3.20;;;;;;;;;;4987552;28;20073;-46
2022/07/27 03:45:41;;;;;;;5.85;3.40;;;;;;;;;;4986680;28;20104;-45
2022/07/27 03:48:06;;;;;;;10.57;5.13;;;;;;;;;;4987572;28;20049;-48
2022/07/27 03:50:31;;;;;;;9.80;3.75;;;;;;;;;;4987148;28;20074;-45
2022/07/27 03:52:57;;;;;;;3.05;2.55;;;;;;;;;;4987417;28;20034;-41
2022/07/27 03:55:22;;;;;;;10.02;4.00;;;;;;;;;;4989408;28;20039;-43
2022/07/27 03:57:47;;;;;;;11.02;5.15;;;;;;;;;;4987572;28;20481;-46
2022/07/27 04:00:14;;;;;;;6.30;4.10;;;;;;;;;;4987347;28;20089;-44
2022/07/27 04:02:40;;;;;;;6.75;3.47;;;;;;;;;;4986870;28;20050;-42
2022/07/27 04:05:06;;;;;;;5.93;4.30;;;;;;;;;;4987043;28;20046;-46
2022/07/27 04:07:31;;;;;;;18.75;4.30;;;;;;;;;;4987269;28;20117;-44
2022/07/27 04:09:57;;;;;;;10.15;4.35;;;;;;;;;;4987077;28;20077;-41
2022/07/27 04:12:22;;;;;;;4.72;3.35;;;;;;;;;;4986847;28;20077;-45
2022/07/27 04:14:47;;;;;;;20.65;7.38;;;;;;;;;;4988015;28;20506;-43
2022/07/27 04:17:13;;;;;;;12.02;3.60;;;;;;;;;;4985867;28;20116;-43
2022/07/27 04:19:38;;;;;;;7.53;4.05;;;;;;;;;;4985965;28;20516;-44
2022/07/27 04:22:04;;;;;;;4.90;2.72;;;;;;;;;;4987180;28;20067;-42
2022/07/27 04:24:29;;;;;;;6.38;3.60;;;;;;;;;;4986154;28;20081;-44
2022/07/27 04:26:54;;;;;;;8.80;4.40;;;;;;;;;;4986833;28;20058;-47
2022/07/27 04:29:20;;;;;;;7.43;3.65;;;;;;;;;;4986530;28;20052;-45
2022/07/27 04:31:45;;;;;;;7.22;4.85;;;;;;;;;;4984472;28;20061;-45
2022/07/27 04:34:11;;;;;;;13.32;4.07;;;;;;;;;;4986497;28;20283;-47
2022/07/27 04:36:36;;;;;;;5.18;3.92;;;;;;;;;;4987634;28;20054;-44
2022/07/27 04:39:02;;;;;;;8.02;2.70;;;;;;;;;;4987761;28;20050;-44
2022/07/27 04:41:27;;;;;;;7.75;3.97;;;;;;;;;;4985563;28;20057;-45
2022/07/27 04:43:52;;;;;;;12.57;4.22;;;;;;;;;;4985868;28;20133;-42
2022/07/27 04:46:18;;;;;;;4.80;2.78;;;;;;;;;;4984962;28;20140;-40
2022/07/27 04:48:43;;;;;;;11.48;4.72;;;;;;;;;;4985576;28;20046;-41
2022/07/27 04:51:11;;;;;;;4.47;2.95;;;;;;;;;;4984919;28;20050;-44
2022/07/27 04:53:37;;;;;;;11.85;4.10;;;;;;;;;;4985142;28;20053;-47
2022/07/27 04:56:02;;;;;;;10.23;5.15;;;;;;;;;;4982928;28;20042;-43
2022/07/27 04:58:28;;;;;;;11.05;5.05;;;;;;;;;;4985023;28;20061;-41
2022/07/27 05:00:53;;;;;;;11.75;4.15;;;;;;;;;;4985583;28;20061;-44
2022/07/27 05:03:18;;;;;;;11.30;3.72;;;;;;;;;;4985152;28;20367;-41
2022/07/27 05:05:44;;;;;;;7.55;3.05;;;;;;;;;;4984852;28;20054;-44
2022/07/27 05:08:09;;;;;;;5.60;4.05;;;;;;;;;;4985042;28;20039;-42
2022/07/27 05:10:35;;;;;;;8.60;4.47;;;;;;;;;;4984639;28;20043;-41
2022/07/27 05:13:00;;;;;;;5.70;3.67;;;;;;;;;;4987746;28;20046;-43
2022/07/27 05:15:25;;;;;;;17.50;4.70;;;;;;;;;;4986410;28;20041;-45
2022/07/27 05:17:51;;;;;;;18.90;14.63;;;;;;;;;;4988154;28;20065;-41
2022/07/27 05:20:17;;;;;;;9.73;4.68;;;;;;;;;;4989192;28;20453;-42
2022/07/27 05:22:42;;;;;;;21.10;5.30;;;;;;;;;;4989281;28;20070;-41
2022/07/27 05:25:08;;;;;;;4.93;4.07;;;;;;;;;;4990266;28;20042;-43
2022/07/27 05:27:34;;;;;;;10.48;5.45;;;;;;;;;;4989609;28;20509;-44
2022/07/27 05:30:00;;;;;;;9.70;7.18;;;;;;;;;;4989031;28;20136;-44
2022/07/27 05:32:25;;;;;;;7.28;5.22;;;;;;;;;;4989015;28;20066;-42
2022/07/27 05:34:50;;;;;;;11.23;5.53;;;;;;;;;;4988256;28;20081;-41
2022/07/27 05:37:16;;;;;;;8.32;4.93;;;;;;;;;;4989406;28;20042;-45
2022/07/27 05:39:41;;;;;;;20.67;4.53;;;;;;;;;;4989251;28;20039;-43
2022/07/27 05:42:09;;;;;;;9.60;5.43;;;;;;;;;;4989248;28;20493;-40
2022/07/27 05:44:35;;;;;;;20.23;5.70;;;;;;;;;;4988858;28;20040;-41
2022/07/27 05:47:00;;;;;;;5.72;4.70;;;;;;;;;;4989493;28;20070;-41
2022/07/27 05:49:25;;;;;;;20.70;5.15;;;;;;;;;;4988727;28;20042;-49
2022/07/27 05:51:50;;;;;;;6.72;3.33;;;;;;;;;;4988580;28;20046;-47
2022/07/27 05:54:17;;;;;;;8.10;5.80;;;;;;;;;;4988697;28;20050;-41
2022/07/27 05:56:42;;;;;;;9.68;6.07;;;;;;;;;;4989354;28;20249;-42
2022/07/27 05:59:07;;;;;;;10.45;5.90;;;;;;;;;;4989024;28;20500;-40
2022/07/27 06:01:33;;;;;;;17.70;5.28;;;;;;;;;;4988601;28;20414;-41
2022/07/27 06:03:58;;;;;;;7.90;4.07;;;;;;;;;;4988791;28;20438;-41
2022/07/27 06:09:15;;;;;;;31.80;5.53;;;;;;;;;;4972957;28;20620;-42
2022/07/27 06:11:41;;;;;;;9.10;4.13;;;;;;;;;;4987646;28;20046;-41
2022/07/27 06:14:06;;;;;;;8.77;3.75;;;;;;;;;;4988275;28;20124;-46
2022/07/27 06:16:32;;;;;;;18.15;5.50;;;;;;;;;;4989132;28;20149;-41
2022/07/27 06:18:57;;;;;;;8.02;4.93;;;;;;;;;;4989963;28;20129;-43
2022/07/27 06:21:25;;;;;;;10.88;5.10;;;;;;;;;;4987931;28;20052;-42
2022/07/27 06:23:50;;;;;;;5.60;3.67;;;;;;;;;;4986428;28;20038;-40
2022/07/27 06:26:16;;;;;;;7.22;3.60;;;;;;;;;;4988716;28;20054;-41
2022/07/27 06:28:41;;;;;;;11.95;3.53;;;;;;;;;;4988429;28;20137;-43
2022/07/27 06:31:06;;;;;;;25.95;4.38;;;;;;;;;;4988049;28;20050;-41
2022/07/27 06:33:32;;;;;;;7.93;3.97;;;;;;;;;;4988114;28;20085;-45
2022/07/27 06:35:58;;;;;;;30.40;6.18;;;;;;;;;;4987841;28;20133;-43
2022/07/27 06:38:23;;;;;;;5.63;3.10;;;;;;;;;;4989248;28;20042;-41
2022/07/27 06:40:51;;;;;;;5.43;2.75;;;;;;;;;;4989151;28;20074;-40
2022/07/27 06:43:18;;;;;;;16.90;3.67;;;;;;;;;;4989276;28;20133;-47
2022/07/27 06:45:43;;;;;;;14.93;5.20;;;;;;;;;;4988220;28;20057;-44
2022/07/27 06:48:08;;;;;;;9.70;3.47;;;;;;;;;;4988452;28;20046;-44
2022/07/27 06:50:34;;;;;;;13.15;4.63;;;;;;;;;;4987947;28;20500;-46
2022/07/27 06:52:59;;;;;;;9.57;4.70;;;;;;;;;;4988311;28;20046;-47
2022/07/27 06:55:24;;;;;;;8.18;4.63;;;;;;;;;;4986449;28;20046;-44
2022/07/27 06:57:50;;;;;;;6.07;4.07;;;;;;;;;;4987670;28;20070;-44
2022/07/27 07:00:15;;;;;;;7.00;3.55;;;;;;;;;;4988315;28;20038;-46
2022/07/27 07:02:54;;;;;;;16.17;4.80;;;;;;;;;;4987960;28;20070;-45
2022/07/27 07:05:19;;;;;;;5.15;4.65;;;;;;;;;;4987416;28;20160;-43
2022/07/27 07:07:45;;;;;;;8.55;3.25;;;;;;;;;;4988504;28;20534;-44
2022/07/27 07:10:10;;;;;;;5.82;3.35;;;;;;;;;;4988063;28;20064;-45
2022/07/27 07:12:35;;;;;;;3.45;2.40;;;;;;;;;;4987379;28;20053;-46
2022/07/27 07:15:01;;;;;;;11.48;4.85;;;;;;;;;;4988268;28;20057;-44
2022/07/27 07:17:26;;;;;;;13.77;4.15;;;;;;;;;;4989246;28;20064;-44
2022/07/27 07:19:51;;;;;;;6.30;3.80;;;;;;;;;;4988079;28;20597;-44
2022/07/27 07:22:17;;;;;;;5.65;3.78;;;;;;;;;;4988110;28;20129;-43
2022/07/27 07:24:42;;;;;;;8.05;4.57;;;;;;;;;;4987844;28;20485;-42
2022/07/27 07:27:07;;;;;;;7.57;5.00;;;;;;;;;;4987892;28;20181;-48
2022/07/27 07:29:32;;;;;;;8.10;5.03;;;;;;;;;;4986934;28;20050;-44
2022/07/27 07:31:58;;;;;;;4.20;3.00;;;;;;;;;;4988015;28;20042;-63
2022/07/27 07:34:23;;;;;;;18.00;6.93;;;;;;;;;;4987416;28;20598;-63
2022/07/27 07:36:48;;;;;;;9.07;5.30;;;;;;;;;;4987556;28;20516;-63
2022/07/27 07:39:14;;;;;;;5.38;3.25;;;;;;;;;;4987546;28;20046;-62
2022/07/27 07:41:39;;;;;;;12.07;4.85;;;;;;;;;;4987919;28;20129;-61
2022/07/27 07:44:05;;;;;;;5.63;3.58;;;;;;;;;;4987858;28;20402;-62
2022/07/27 07:46:30;;;;;;;6.88;4.53;;;;;;;;;;4988994;28;20192;-62
2022/07/27 07:48:56;;;;;;;6.22;4.65;;;;;;;;;;4987655;28;20534;-63
2022/07/27 07:51:21;;;;;;;15.77;5.68;;;;;;;;;;4986704;28;20659;-59
2022/07/27 07:53:46;;;;;;;9.27;5.95;;;;;;;;;;4986692;28;20046;-62
2022/07/27 07:56:13;;;;;;;8.45;6.00;;;;;;;;;;4987080;28;20395;-63
2022/07/27 07:58:38;;;;;;;7.38;5.03;;;;;;;;;;4987284;28;20093;-61
2022/07/27 08:01:03;;;;;;;17.77;5.47;;;;;;;;;;4987459;28;20451;-62
2022/07/27 08:03:29;;;;;;;22.40;4.97;;;;;;;;;;4987029;28;20445;-62
2022/07/27 08:05:54;;;;;;;21.63;6.32;;;;;;;;;;4987269;28;20405;-61
2022/07/27 08:08:19;;;;;;;19.33;6.72;;;;;;;;;;4987167;28;20100;-62
2022/07/27 08:10:45;;;;;;;4.28;3.83;;;;;;;;;;4988473;28;20045;-61
2022/07/27 08:13:10;;;;;;;14.63;5.20;;;;;;;;;;4985550;28;20042;-59
2022/07/27 08:15:35;;;;;;;5.68;4.18;;;;;;;;;;4986161;28;20051;-61
2022/07/27 08:18:01;;;;;;;23.48;7.22;;;;;;;;;;4987593;28;20648;-62
2022/07/27 08:20:27;;;;;;;6.75;4.53;;;;;;;;;;4987152;28;20067;-62
2022/07/27 08:22:52;;;;;;;7.80;3.83;;;;;;;;;;4986849;28;20046;-62
2022/07/27 08:25:18;;;;;;;6.68;3.28;;;;;;;;;;4987254;28;20073;-62
2022/07/27 08:27:43;;;;;;;11.05;5.20;;;;;;;;;;4986387;28;20050;-61
2022/07/27 08:30:09;;;;;;;6.03;2.58;;;;;;;;;;4986860;28;20042;-62
2022/07/27 08:32:50;;;;;;;10.13;3.53;;;;;;;;;;4986724;28;20058;-63
2022/07/27 08:35:17;;;;;;;11.07;4.38;;;;;;;;;;4988759;28;20049;-62
2022/07/27 08:37:42;;;;;;;3.60;2.90;;;;;;;;;;4986988;28;20043;-62
2022/07/27 08:40:08;;;;;;;4.85;2.13;;;;;;;;;;4987148;28;20093;-62
2022/07/27 08:42:34;;;;;;;3.50;2.28;;;;;;;;;;4986339;28;20085;-61
2022/07/27 08:45:00;;;;;;;3.08;1.98;;;;;;;;;;4986820;28;20074;-62
2022/07/27 08:47:26;;;;;;;4.47;3.00;;;;;;;;;;4988151;28;20054;-62
2022/07/27 08:49:51;;;;;;;9.23;7.25;;;;;;;;;;4988542;28;20038;-62
2022/07/27 08:52:17;;;;;;;3.58;3.28;;;;;;;;;;4989226;28;20413;-63
2022/07/27 08:54:42;;;;;;;6.30;2.55;;;;;;;;;;4989413;28;20391;-62
2022/07/27 08:57:08;;;;;;;10.80;3.75;;;;;;;;;;4989460;28;20121;-62
2022/07/27 08:59:33;;;;;;;4.50;2.97;;;;;;;;;;4989749;28;20053;-63
2022/07/27 09:01:59;;;;;;;5.05;3.42;;;;;;;;;;4989523;28;20042;-63
2022/07/27 09:04:25;;;;;;;3.20;2.40;;;;;;;;;;4989656;28;20050;-63
2022/07/27 09:06:50;;;;;;;3.20;2.85;;;;;;;;;;4988127;28;20042;-63
2022/07/27 09:09:19;;;;;;;4.00;3.05;;;;;;;;;;4989387;28;20501;-62
2022/07/27 09:12:03;;;;;;;8.65;3.70;;;;;;;;;;4989671;28;20093;-63
2022/07/27 09:14:29;;;;;;;184.85;29.85;;;;;;;;;;4987323;28;20055;-63
2022/07/27 09:16:55;;;;;;;15.48;4.82;;;;;;;;;;4989360;28;20050;-62
2022/07/27 09:19:20;;;;;;;3.10;2.75;;;;;;;;;;4989249;28;20454;-62
2022/07/27 09:21:45;;;;;;;11.23;3.90;;;;;;;;;;4990152;28;20559;-62
2022/07/27 09:24:15;;;;;;;6.40;3.63;;;;;;;;;;4988086;28;20051;-63
2022/07/27 09:26:41;;;;;;;4.60;2.65;;;;;;;;;;4989195;28;20058;-63
2022/07/27 09:29:11;;;;;;;5.32;4.07;;;;;;;;;;4987676;28;20050;-63
2022/07/27 09:31:41;;;;;;;3.50;2.60;;;;;;;;;;4988225;28;20042;-64
2022/07/27 09:34:07;;;;;;;6.75;2.38;;;;;;;;;;4988532;28;20046;-63
2022/07/27 09:36:33;;;;;;;6.85;2.20;;;;;;;;;;4988572;28;20047;-63
2022/07/27 09:39:04;;;;;;;6.88;3.78;;;;;;;;;;4988129;28;20538;-62
2022/07/27 09:41:40;;;;;;;14.88;3.63;;;;;;;;;;4988074;28;20077;-67
2022/07/27 09:44:05;;;;;;;8.95;2.58;;;;;;;;;;4989154;28;20046;-61
2022/07/27 09:46:31;;;;;;;4.47;3.72;;;;;;;;;;4989128;28;20160;-61
2022/07/27 09:48:57;;;;;;;6.45;2.58;;;;;;;;;;4988419;28;20102;-61
2022/07/27 09:51:25;;;;;;;2.22;1.88;;;;;;;;;;4988619;28;20493;-61
2022/07/27 09:53:51;;;;;;;4.03;2.97;;;;;;;;;;4988693;28;20053;-60
2022/07/27 09:56:23;;;;;;;5.93;2.25;;;;;;;;;;4988778;28;20050;-60
2022/07/27 09:58:48;;;;;;;2.92;2.20;;;;;;;;;;4988909;28;20042;-61
2022/07/27 10:01:39;;;;;;;5.22;3.03;;;;;;;;;;4987755;28;20476;-60
2022/07/27 10:04:06;;;;;;;5.38;2.45;;;;;;;;;;4987622;28;20047;-60
2022/07/27 10:06:31;;;;;;;8.07;3.22;;;;;;;;;;4989671;28;20042;-59
2022/07/27 10:08:57;;;;;;;4.40;2.67;;;;;;;;;;4988030;28;20061;-60
2022/07/27 10:11:23;;;;;;;5.40;3.20;;;;;;;;;;4988275;28;20100;-58
2022/07/27 10:13:50;;;;;;;4.93;2.45;;;;;;;;;;4988683;28;20065;-60
2022/07/27 10:16:16;;;;;;;6.65;2.45;;;;;;;;;;4988516;28;20077;-60
2022/07/27 10:18:42;;;;;;;19.90;3.60;;;;;;;;;;4988312;28;20089;-60
2022/07/27 10:21:08;;;;;;;4.40;3.95;;;;;;;;;;4987567;28;20054;-60
2022/07/27 10:23:36;;;;;;;13.18;3.58;;;;;;;;;;4988651;28;20108;-60
2022/07/27 10:26:14;;;;;;;11.18;5.30;;;;;;;;;;4987729;28;20080;-60
2022/07/27 10:28:56;;;;;;;26.83;9.70;;;;;;;;;;4990211;28;20038;-60
2022/07/27 10:31:26;;;;;;;4.82;3.33;;;;;;;;;;4987959;28;20047;-60
2022/07/27 10:33:52;;;;;;;8.97;3.50;;;;;;;;;;4988178;28;20065;-60
2022/07/27 10:36:38;;;;;;;5.80;2.75;;;;;;;;;;4988199;28;20295;-59
2022/07/27 10:39:04;;;;;;;6.32;2.72;;;;;;;;;;4987825;28;20053;-60
2022/07/27 10:41:30;;;;;;;8.38;5.43;;;;;;;;;;4987295;28;20030;-61
2022/07/27 10:44:13;;;;;;;8.20;3.15;;;;;;;;;;4988490;28;20042;-61
2022/07/27 10:46:42;;;;;;;16.25;4.22;;;;;;;;;;4989716;28;20049;-60
2022/07/27 10:49:21;;;;;;;13.32;4.35;;;;;;;;;;4988086;28;20564;-60
2022/07/27 10:51:46;;;;;;;5.95;2.60;;;;;;;;;;4987855;28;20042;-61
2022/07/27 10:54:20;;;;;;;7.97;4.13;;;;;;;;;;4987901;28;20558;-61
2022/07/27 10:56:46;;;;;;;7.78;3.72;;;;;;;;;;4987925;28;20038;-61
2022/07/27 10:59:12;;;;;;;7.32;5.22;;;;;;;;;;4987877;28;20046;-61
2022/07/27 11:01:54;;;;;;;3.78;2.25;;;;;;;;;;4987918;28;20137;-60
2022/07/27 11:04:20;;;;;;;5.65;2.83;;;;;;;;;;4985344;28;20105;-61
2022/07/27 11:06:45;;;;;;;15.60;3.05;;;;;;;;;;4987360;28;20081;-60
2022/07/27 11:09:11;;;;;;;3.15;2.78;;;;;;;;;;4987134;28;20046;-60
2022/07/27 11:11:36;;;;;;;5.65;3.55;;;;;;;;;;4987381;28;20045;-61
2022/07/27 11:14:01;;;;;;;5.80;4.07;;;;;;;;;;4987291;28;20514;-60
2022/07/27 11:16:28;;;;;;;8.93;2.58;;;;;;;;;;4987741;28;20387;-61
2022/07/27 11:19:00;;;;;;;14.95;3.97;;;;;;;;;;4987534;28;20513;-60
2022/07/27 11:21:33;;;;;;;3.55;2.80;;;;;;;;;;4987339;28;20080;-60
2022/07/27 11:24:17;;;;;;;14.40;4.45;;;;;;;;;;4987172;28;20125;-60
2022/07/27 11:26:46;;;;;;;2.83;1.90;;;;;;;;;;4988404;28;20045;-60
2022/07/27 11:29:13;;;;;;;3.83;1.98;;;;;;;;;;4987432;28;20050;-61
2022/07/27 11:31:39;;;;;;;4.53;3.15;;;;;;;;;;4987518;28;20064;-60
2022/07/27 11:34:05;;;;;;;11.30;4.65;;;;;;;;;;4987547;28;20133;-60
2022/07/27 11:36:35;;;;;;;9.43;2.67;;;;;;;;;;4987593;28;20130;-60
2022/07/27 11:39:02;;;;;;;4.50;1.92;;;;;;;;;;4987869;28;20046;-60
2022/07/27 11:41:28;;;;;;;6.18;3.55;;;;;;;;;;4987372;28;20046;-60
2022/07/27 11:43:59;;;;;;;5.47;1.58;;;;;;;;;;4987402;28;20050;-60
2022/07/27 11:46:26;;;;;;;7.20;3.20;;;;;;;;;;4986708;28;20089;-60
2022/07/27 11:48:55;;;;;;;12.20;3.22;;;;;;;;;;4987194;28;20093;-60
2022/07/27 11:51:22;;;;;;;7.22;3.25;;;;;;;;;;4985862;28;20047;-60
2022/07/27 11:53:47;;;;;;;11.70;3.88;;;;;;;;;;4986697;28;20081;-61
2022/07/27 11:56:20;;;;;;;6.43;2.85;;;;;;;;;;4987144;28;20074;-60
2022/07/27 11:58:59;;;;;;;11.75;2.97;;;;;;;;;;4986994;28;20137;-60
2022/07/27 12:01:25;;;;;;;14.75;8.95;;;;;;;;;;4986736;28;20129;-60
2022/07/27 12:04:01;;;;;;;16.73;5.22;;;;;;;;;;4988313;28;20038;-59
2022/07/27 12:06:26;;;;;;;1.98;1.40;;;;;;;;;;4987935;28;20047;-60
2022/07/27 12:08:51;;;;;;;5.63;3.72;;;;;;;;;;4987395;28;20057;-60
2022/07/27 12:11:26;;;;;;;3.97;2.58;;;;;;;;;;4985210;28;20050;-60
2022/07/27 12:13:55;;;;;;;9.23;4.03;;;;;;;;;;4986359;28;20046;-60
2022/07/27 12:16:21;;;;;;;7.35;3.22;;;;;;;;;;4986345;28;20125;-60
2022/07/27 12:18:46;;;;;;;12.80;3.67;;;;;;;;;;4986658;28;20461;-60
2022/07/27 12:21:18;;;;;;;7.72;4.97;;;;;;;;;;4987808;28;20042;-60
2022/07/27 12:23:50;;;;;;;9.95;3.88;;;;;;;;;;4989817;28;20129;-60
2022/07/27 12:26:16;;;;;;;6.10;4.55;;;;;;;;;;4989479;28;20529;-60
2022/07/27 12:28:42;;;;;;;8.63;5.10;;;;;;;;;;4991604;28;20069;-60
2022/07/27 12:31:14;;;;;;;12.02;4.13;;;;;;;;;;4990586;28;20127;-60
2022/07/27 12:33:41;;;;;;;12.23;3.97;;;;;;;;;;4989269;28;20075;-60
2022/07/27 12:36:07;;;;;;;12.07;3.45;;;;;;;;;;4990107;28;20513;-60
2022/07/27 12:38:43;;;;;;;9.63;4.43;;;;;;;;;;4989522;28;20046;-60
2022/07/27 12:41:08;;;;;;;14.93;4.82;;;;;;;;;;4989922;28;20058;-60
2022/07/27 12:43:33;;;;;;;6.18;2.80;;;;;;;;;;4990760;28;20045;-60
2022/07/27 12:46:08;;;;;;;20.40;3.95;;;;;;;;;;4990103;28;20039;-61
2022/07/27 12:48:37;;;;;;;5.95;3.80;;;;;;;;;;4990049;28;20042;-61
2022/07/27 12:51:03;;;;;;;6.70;4.45;;;;;;;;;;4989824;28;20050;-60
2022/07/27 12:53:29;;;;;;;7.82;3.92;;;;;;;;;;4989726;28;20050;-60
2022/07/27 12:55:55;;;;;;;6.13;3.92;;;;;;;;;;4990006;28;20045;-61
2022/07/27 12:58:21;;;;;;;4.43;1.98;;;;;;;;;;4989918;28;20085;-60
2022/07/27 13:00:46;;;;;;;7.10;2.90;;;;;;;;;;4989831;28;20073;-60
2022/07/27 13:03:12;;;;;;;11.38;6.10;;;;;;;;;;4989474;28;20047;-60
2022/07/27 13:05:38;;;;;;;5.75;3.20;;;;;;;;;;4989753;28;20064;-60
2022/07/27 13:08:03;;;;;;;11.85;4.50;;;;;;;;;;4989703;28;20078;-60
2022/07/27 13:10:29;;;;;;;6.15;2.60;;;;;;;;;;4989621;28;20081;-60
2022/07/27 13:12:54;;;;;;;10.48;3.20;;;;;;;;;;4989285;28;20081;-60
2022/07/27 13:15:20;;;;;;;5.57;4.00;;;;;;;;;;4989601;28;20050;-61
2022/07/27 13:17:46;;;;;;;7.13;4.00;;;;;;;;;;4989793;28;20042;-61
2022/07/27 13:20:12;;;;;;;18.63;6.03;;;;;;;;;;4988934;28;20084;-60
2022/07/27 13:22:38;;;;;;;8.98;4.20;;;;;;;;;;4988537;28;20125;-61
2022/07/27 13:25:04;;;;;;;5.10;2.67;;;;;;;;;;4989376;28;20121;-60
2022/07/27 13:27:29;;;;;;;10.50;2.92;;;;;;;;;;4989086;28;20046;-61
2022/07/27 13:29:55;;;;;;;5.80;2.42;;;;;;;;;;4989482;28;20399;-60
2022/07/27 13:32:20;;;;;;;14.02;3.40;;;;;;;;;;4988482;28;20058;-60
2022/07/27 13:34:47;;;;;;;2.75;1.73;;;;;;;;;;4990304;28;20464;-60
2022/07/27 13:37:13;;;;;;;4.32;2.55;;;;;;;;;;4990496;28;20054;-60
2022/07/27 13:39:38;;;;;;;6.63;2.63;;;;;;;;;;4988863;28;20109;-59
2022/07/27 13:42:03;;;;;;;15.57;3.13;;;;;;;;;;4989008;28;20133;-60
2022/07/27 13:44:28;;;;;;;16.05;2.83;;;;;;;;;;4989039;28;20101;-59
2022/07/27 13:46:54;;;;;;;7.05;3.05;;;;;;;;;;4988874;28;20125;-60
2022/07/27 13:49:19;;;;;;;8.85;4.88;;;;;;;;;;4988471;28;20100;-60
2022/07/27 13:51:45;;;;;;;8.93;2.53;;;;;;;;;;4988504;28;20100;-60
2022/07/27 13:54:10;;;;;;;4.75;2.35;;;;;;;;;;4989184;28;20121;-60
2022/07/27 13:56:36;;;;;;;4.60;1.70;;;;;;;;;;4988965;28;20137;-59
2022/07/27 13:59:03;;;;;;;2.35;1.88;;;;;;;;;;4988619;28;20045;-59
2022/07/27 14:01:29;;;;;;;5.10;3.50;;;;;;;;;;4987785;28;20047;-60
2022/07/27 14:03:54;;;;;;;8.85;3.50;;;;;;;;;;4988870;28;20121;-59
2022/07/27 14:06:19;;;;;;;8.57;3.20;;;;;;;;;;4988553;28;20046;-60
2022/07/27 14:08:45;;;;;;;5.97;3.42;;;;;;;;;;4987770;28;20044;-60
2022/07/27 14:11:10;;;;;;;3.67;2.25;;;;;;;;;;4988790;28;20047;-60
2022/07/27 14:13:36;;;;;;;3.53;1.98;;;;;;;;;;4988797;28;20137;-60
2022/07/27 14:16:01;;;;;;;6.22;3.28;;;;;;;;;;4989519;28;20053;-60
2022/07/27 14:18:28;;;;;;;5.35;2.45;;;;;;;;;;4988992;28;20046;-60
2022/07/27 14:20:55;;;;;;;6.90;2.83;;;;;;;;;;4988543;28;20046;-60
2022/07/27 14:23:20;;;;;;;2.10;1.33;;;;;;;;;;4988842;28;20236;-60
2022/07/27 14:25:45;;;;;;;3.90;2.92;;;;;;;;;;4988790;28;20133;-61
2022/07/27 14:28:11;;;;;;;14.75;3.85;;;;;;;;;;4987887;28;20053;-59
2022/07/27 14:30:36;;;;;;;4.05;2.80;;;;;;;;;;4988228;28;20533;-59
2022/07/27 14:33:02;;;;;;;5.68;2.45;;;;;;;;;;4988312;28;20555;-59
2022/07/27 14:35:27;;;;;;;5.03;4.05;;;;;;;;;;4988922;28;20050;-59
2022/07/27 14:37:53;;;;;;;8.38;4.13;;;;;;;;;;4989582;28;20189;-60
2022/07/27 14:40:18;;;;;;;2.03;1.60;;;;;;;;;;4987472;28;20042;-59